createdAt,value
2023-01-11T00:01:37.979Z,0.77
2023-01-11T00:04:06.798Z,1.50
2023-01-11T00:06:35.538Z,0.60
2023-01-11T00:09:04.034Z,0.70
2023-01-11T00:11:32.445Z,2.20
2023-01-11T00:14:02.327Z,1.00
2023-01-11T00:16:30.772Z,1.60
2023-01-11T00:18:59.418Z,2.50
2023-01-11T00:21:27.998Z,2.93
2023-01-11T00:23:56.576Z,0.50
2023-01-11T00:26:25.154Z,0.60
2023-01-11T00:28:53.840Z,1.23
2023-01-11T00:31:23.828Z,1.90
2023-01-11T00:33:52.474Z,1.07
2023-01-11T00:36:20.876Z,1.53
2023-01-11T00:38:51.920Z,1.73
2023-01-11T00:41:38.896Z,0.73
2023-01-11T00:44:36.688Z,1.27
2023-01-11T00:47:24.268Z,1.10
2023-01-11T00:49:52.770Z,1.30
2023-01-11T00:52:21.570Z,1.17
2023-01-11T00:54:50.501Z,1.07
2023-01-11T00:57:19.114Z,0.90
2023-01-11T00:59:47.791Z,3.23
2023-01-11T01:02:17.871Z,1.70
2023-01-11T01:04:46.673Z,4.03
2023-01-11T01:07:15.165Z,2.03
2023-01-11T01:09:43.886Z,2.27
2023-01-11T01:12:32.485Z,1.87
2023-01-11T01:15:00.039Z,1.07
2023-01-11T01:17:29.997Z,1.97
2023-01-11T01:19:58.650Z,2.20
2023-01-11T01:22:27.276Z,2.87
2023-01-11T01:24:55.753Z,2.20
2023-01-11T01:27:24.140Z,2.80
2023-01-11T01:29:52.713Z,1.47
2023-01-11T01:32:21.166Z,2.40
2023-01-11T01:34:51.111Z,0.73
2023-01-11T01:37:19.988Z,2.07
2023-01-11T01:39:48.402Z,2.07
2023-01-11T01:42:18.282Z,2.07
2023-01-11T01:45:07.425Z,0.70
2023-01-11T01:47:42.660Z,0.90
2023-01-11T01:50:23.985Z,1.50
2023-01-11T01:52:58.100Z,3.77
2023-01-11T01:55:29.947Z,0.97
2023-01-11T01:58:01.022Z,1.63
2023-01-11T02:00:29.604Z,0.73
2023-01-11T02:03:01.879Z,2.70
2023-01-11T02:05:32.393Z,0.40
2023-01-11T02:08:04.439Z,1.30
2023-01-11T02:10:34.298Z,3.47
2023-01-11T02:13:06.662Z,1.43
2023-01-11T02:15:35.676Z,3.00
2023-01-11T02:18:04.103Z,2.30
2023-01-11T02:20:52.561Z,2.90
2023-01-11T02:23:52.712Z,2.83
2023-01-11T02:27:01.470Z,1.87
2023-01-11T02:29:39.803Z,0.60
2023-01-11T02:32:20.241Z,3.80
2023-01-11T02:35:01.219Z,1.80
2023-01-11T02:37:43.227Z,1.43
2023-01-11T02:40:23.218Z,2.43
2023-01-11T02:43:12.566Z,1.60
2023-01-11T02:45:51.500Z,3.33
2023-01-11T02:48:27.843Z,3.20
2023-01-11T02:51:03.625Z,1.80
2023-01-11T02:53:38.225Z,1.30
2023-01-11T02:56:11.282Z,0.80
2023-01-11T02:58:43.280Z,1.93
2023-01-11T03:01:14.621Z,0.97
2023-01-11T03:03:42.981Z,1.43
2023-01-11T03:06:16.497Z,0.83
2023-01-11T03:09:20.340Z,2.50
2023-01-11T03:12:24.639Z,1.03
2023-01-11T03:15:05.263Z,2.30
2023-01-11T03:17:47.485Z,1.20
2023-01-11T03:20:23.155Z,1.73
2023-01-11T03:23:11.719Z,2.30
2023-01-11T03:25:52.338Z,1.00
2023-01-11T03:28:29.931Z,1.00
2023-01-11T03:31:03.880Z,0.80
2023-01-11T03:33:39.791Z,2.43
2023-01-11T03:36:17.970Z,2.53
2023-01-11T03:38:52.634Z,2.47
2023-01-11T03:41:24.698Z,1.20
2023-01-11T03:43:55.441Z,1.30
2023-01-11T03:46:28.845Z,1.93
2023-01-11T03:49:03.247Z,2.90
2023-01-11T03:51:38.775Z,0.70
2023-01-11T03:54:11.459Z,0.53
2023-01-11T03:56:46.062Z,0.53
2023-01-11T03:59:14.759Z,0.83
2023-01-11T04:01:45.092Z,0.60
2023-01-11T04:04:15.058Z,2.23
2023-01-11T04:06:43.558Z,2.73
2023-01-11T04:09:12.045Z,2.03
2023-01-11T04:11:40.456Z,1.77
2023-01-11T04:14:09.058Z,0.80
2023-01-11T04:16:37.566Z,0.63
2023-01-11T04:19:06.006Z,3.27
2023-01-11T04:21:36.463Z,0.30
2023-01-11T04:24:05.648Z,2.47
2023-01-11T04:26:34.354Z,0.67
2023-01-11T04:29:02.672Z,0.40
2023-01-11T04:31:31.171Z,0.40
2023-01-11T04:33:59.779Z,0.33
2023-01-11T04:36:28.880Z,3.27
2023-01-11T04:38:58.857Z,1.23
2023-01-11T04:41:45.055Z,0.73
2023-01-11T04:44:13.598Z,1.73
2023-01-11T04:46:42.008Z,0.53
2023-01-11T04:49:10.529Z,0.60
2023-01-11T04:51:38.922Z,0.77
2023-01-11T04:54:08.898Z,3.03
2023-01-11T04:56:37.379Z,0.50
2023-01-11T04:59:05.894Z,0.30
2023-01-11T05:01:34.455Z,0.20
2023-01-11T05:04:02.984Z,0.57
2023-01-11T05:06:31.431Z,0.97
2023-01-11T05:08:59.870Z,0.27
2023-01-11T05:11:29.778Z,2.97
2023-01-11T05:14:00.199Z,0.40
2023-01-11T05:16:28.702Z,2.60
2023-01-11T05:18:58.467Z,0.57
2023-01-11T05:21:28.911Z,0.70
2023-01-11T05:23:57.490Z,0.73
2023-01-11T05:26:27.994Z,1.03
2023-01-11T05:29:00.364Z,1.07
2023-01-11T05:31:29.239Z,0.53
2023-01-11T05:33:58.681Z,0.50
2023-01-11T05:36:28.339Z,1.60
2023-01-11T05:38:57.968Z,2.17
2023-01-11T05:41:28.363Z,0.60
2023-01-11T05:44:15.842Z,1.13
2023-01-11T05:46:45.568Z,0.50
2023-01-11T05:49:16.985Z,1.50
2023-01-11T05:51:45.439Z,0.60
2023-01-11T05:54:15.815Z,0.20
2023-01-11T05:56:44.453Z,0.27
2023-01-11T05:59:14.330Z,0.30
2023-01-11T06:01:42.727Z,0.20
2023-01-11T06:04:11.049Z,0.53
2023-01-11T06:06:39.625Z,1.70
2023-01-11T06:09:08.082Z,0.63
2023-01-11T06:11:36.611Z,0.70
2023-01-11T06:14:05.126Z,0.70
2023-01-11T06:16:34.951Z,4.43
2023-01-11T06:19:03.677Z,1.97
2023-01-11T06:21:32.250Z,0.43
2023-01-11T06:24:00.839Z,0.67
2023-01-11T06:26:29.309Z,0.60
2023-01-11T06:28:57.856Z,0.60
2023-01-11T06:31:26.356Z,1.03
2023-01-11T06:33:56.211Z,0.50
2023-01-11T06:36:24.575Z,2.50
2023-01-11T06:38:53.817Z,1.57
2023-01-11T06:41:22.429Z,1.43
2023-01-11T06:43:51.958Z,3.40
2023-01-11T06:46:20.383Z,0.93
2023-01-11T06:48:49.025Z,1.70
2023-01-11T06:51:18.874Z,1.00
2023-01-11T06:53:47.594Z,0.70
2023-01-11T06:56:19.125Z,0.70
2023-01-11T06:58:48.987Z,1.07
2023-01-11T07:01:18.289Z,1.10
2023-01-11T07:03:47.131Z,1.47
2023-01-11T07:06:15.600Z,2.40
2023-01-11T07:08:45.484Z,2.43
2023-01-11T07:11:14.064Z,1.70
2023-01-11T07:13:42.639Z,2.87
2023-01-11T07:16:11.117Z,3.20
2023-01-11T07:18:39.722Z,2.97
2023-01-11T07:21:08.173Z,3.50
2023-01-11T07:23:36.700Z,6.40
2023-01-11T07:26:07.057Z,3.57
2023-01-11T07:28:35.665Z,5.70
2023-01-11T07:31:04.294Z,5.10
2023-01-11T07:33:32.701Z,9.40
2023-01-11T07:36:05.482Z,7.77
2023-01-11T07:38:34.082Z,9.87
2023-01-11T07:41:22.548Z,7.27
2023-01-11T07:43:51.275Z,7.40
2023-01-11T07:46:19.900Z,13.43
2023-01-11T07:48:48.637Z,9.40
2023-01-11T07:51:20.684Z,9.37
2023-01-11T07:53:49.198Z,18.07
2023-01-11T07:56:17.647Z,12.70
2023-01-11T07:58:46.180Z,18.27
2023-01-11T08:01:16.029Z,15.37
2023-01-11T08:03:44.741Z,16.23
2023-01-11T08:06:14.844Z,15.20
2023-01-11T08:08:43.511Z,17.73
2023-01-11T08:11:38.731Z,19.23
2023-01-11T08:14:24.448Z,15.60
2023-01-11T08:16:54.453Z,22.60
2023-01-11T08:19:22.850Z,22.47
2023-01-11T08:21:51.786Z,22.27
2023-01-11T08:24:21.372Z,16.00
2023-01-11T08:26:50.269Z,15.30
2023-01-11T08:29:19.123Z,19.37
2023-01-11T08:31:48.689Z,17.17
2023-01-11T08:34:19.148Z,21.37
2023-01-11T08:36:47.668Z,20.30
2023-01-11T08:39:16.079Z,17.87
2023-01-11T08:41:45.777Z,20.03
2023-01-11T08:44:22.346Z,20.23
2023-01-11T08:47:01.822Z,19.97
2023-01-11T08:49:32.101Z,21.37
2023-01-11T08:52:00.807Z,29.47
2023-01-11T08:54:29.840Z,22.03
2023-01-11T08:56:58.800Z,30.60
2023-01-11T08:59:27.445Z,17.83
2023-01-11T09:01:56.646Z,26.63
2023-01-11T09:04:26.711Z,17.27
2023-01-11T09:06:57.092Z,27.53
2023-01-11T09:09:28.463Z,27.27
2023-01-11T09:11:58.943Z,16.90
2023-01-11T09:14:29.457Z,26.73
2023-01-11T09:16:58.542Z,24.23
2023-01-11T09:19:27.573Z,21.67
2023-01-11T09:22:00.901Z,19.03
2023-01-11T09:24:29.954Z,21.60
2023-01-11T09:27:00.104Z,19.13
2023-01-11T09:29:29.443Z,22.30
2023-01-11T09:31:59.418Z,23.90
2023-01-11T09:34:28.227Z,22.33
2023-01-11T09:37:00.972Z,24.53
2023-01-11T09:39:29.776Z,19.83
2023-01-11T09:42:22.546Z,14.67
2023-01-11T09:44:53.468Z,16.37
2023-01-11T09:47:36.961Z,19.33
2023-01-11T09:50:18.835Z,12.87
2023-01-11T09:52:55.607Z,20.77
2023-01-11T09:55:33.167Z,20.27
2023-01-11T09:58:38.085Z,22.27
2023-01-11T10:01:16.484Z,17.20
2023-01-11T10:04:26.687Z,14.43
2023-01-11T10:07:24.723Z,20.13
2023-01-11T10:18:41.129Z,17.13
2023-01-11T10:19:33.461Z,19.20
2023-01-11T10:22:08.548Z,19.77
2023-01-11T10:24:42.356Z,14.90
2023-01-11T10:27:20.251Z,22.13
2023-01-11T10:30:06.289Z,25.50
2023-01-11T10:32:56.189Z,19.13
2023-01-11T10:35:45.959Z,17.57
2023-01-11T10:38:46.758Z,22.93
2023-01-11T10:41:26.615Z,17.83
2023-01-11T10:44:06.342Z,15.10
2023-01-11T10:46:39.941Z,22.10
2023-01-11T10:49:25.850Z,13.33
2023-01-11T10:51:59.409Z,19.13
2023-01-11T10:54:35.674Z,17.43
2023-01-11T10:57:18.432Z,22.40
2023-01-11T11:00:14.168Z,18.60
2023-01-11T11:02:59.854Z,16.57
2023-01-11T11:05:36.381Z,12.60
2023-01-11T11:08:15.108Z,13.90
2023-01-11T11:10:50.837Z,17.97
2023-01-11T11:13:32.496Z,16.67
2023-01-11T11:16:12.171Z,19.20
2023-01-11T11:18:40.963Z,20.33
2023-01-11T11:21:20.380Z,18.53
2023-01-11T11:23:56.803Z,17.70
2023-01-11T11:26:32.607Z,14.33
2023-01-11T11:29:02.946Z,17.27
2023-01-11T11:31:36.179Z,18.00
2023-01-11T11:34:09.721Z,14.03
2023-01-11T11:36:46.311Z,17.07
2023-01-11T11:39:21.749Z,22.70
2023-01-11T11:41:52.616Z,14.83
2023-01-11T11:44:24.457Z,20.57
2023-01-11T11:47:02.032Z,23.30
2023-01-11T11:49:31.887Z,20.07
2023-01-11T11:52:02.217Z,22.27
2023-01-11T11:54:35.438Z,20.23
2023-01-11T11:57:16.816Z,25.53
2023-01-11T11:59:53.435Z,16.37
2023-01-11T12:02:29.247Z,17.23
2023-01-11T12:05:01.304Z,24.73
2023-01-11T12:07:40.434Z,21.33
2023-01-11T12:10:16.709Z,21.30
2023-01-11T12:12:56.700Z,21.20
2023-01-11T12:15:28.973Z,19.90
2023-01-11T12:18:21.393Z,27.50
2023-01-11T12:20:50.310Z,20.67
2023-01-11T12:23:21.759Z,23.30
2023-01-11T12:26:09.460Z,19.00
2023-01-11T12:28:58.392Z,22.93
2023-01-11T12:31:36.457Z,15.00
2023-01-11T12:34:18.605Z,18.97
2023-01-11T12:36:59.506Z,12.77
2023-01-11T12:39:40.099Z,17.77
2023-01-11T12:42:29.215Z,15.40
2023-01-11T12:45:11.785Z,18.27
2023-01-11T12:48:09.266Z,12.90
2023-01-11T12:50:50.461Z,18.70
2023-01-11T12:53:42.629Z,19.07
2023-01-11T12:56:44.598Z,25.00
2023-01-11T12:59:30.205Z,20.93
2023-01-11T13:02:15.383Z,18.67
2023-01-11T13:04:52.881Z,13.83
2023-01-11T13:07:35.985Z,19.30
2023-01-11T13:10:27.753Z,17.17
2023-01-11T13:13:02.405Z,18.83
2023-01-11T13:15:49.108Z,20.03
2023-01-11T13:18:38.487Z,19.00
2023-01-11T13:21:19.451Z,20.20
2023-01-11T13:23:55.076Z,14.10
2023-01-11T13:26:27.194Z,21.03
2023-01-11T13:29:01.825Z,16.27
2023-01-11T13:31:33.231Z,17.90
2023-01-11T13:34:07.592Z,18.03
2023-01-11T13:36:42.847Z,21.60
2023-01-11T13:39:19.397Z,22.23
2023-01-11T13:41:51.088Z,18.97
2023-01-11T13:44:23.859Z,24.40
2023-01-11T13:47:06.275Z,19.07
2023-01-11T13:49:49.358Z,17.27
2023-01-11T13:52:20.321Z,13.27
2023-01-11T13:55:02.076Z,25.60
2023-01-11T13:57:41.479Z,21.10
2023-01-11T14:00:21.742Z,19.90
2023-01-11T14:02:57.282Z,15.87
2023-01-11T14:05:29.642Z,19.83
2023-01-11T14:08:12.887Z,21.07
2023-01-11T14:10:49.816Z,22.30
2023-01-11T14:14:15.019Z,16.97
2023-01-11T14:16:56.722Z,14.00
2023-01-11T14:19:32.382Z,17.63
2023-01-11T14:22:15.785Z,17.90
2023-01-11T14:24:53.072Z,20.47
2023-01-11T14:27:57.884Z,20.13
2023-01-11T14:30:56.198Z,18.77
2023-01-11T14:33:59.300Z,15.50
2023-01-11T14:36:46.437Z,16.23
2023-01-11T14:39:42.894Z,18.73
2023-01-11T14:42:47.860Z,22.73
2023-01-11T14:45:35.251Z,25.43
2023-01-11T14:48:16.948Z,19.30
2023-01-11T14:51:03.202Z,17.23
2023-01-11T14:53:39.136Z,15.27
2023-01-11T14:56:52.315Z,26.10
2023-01-11T14:59:27.787Z,24.03
2023-01-11T15:02:25.280Z,18.83
2023-01-11T15:05:28.870Z,21.40
2023-01-11T15:08:18.796Z,22.50
2023-01-11T15:10:53.473Z,17.67
2023-01-11T15:13:25.230Z,11.43
2023-01-11T15:16:23.053Z,22.23
2023-01-11T15:18:54.215Z,22.77
2023-01-11T15:21:26.295Z,22.97
2023-01-11T15:23:59.337Z,15.90
2023-01-11T15:26:28.711Z,15.63
2023-01-11T15:28:59.179Z,22.83
2023-01-11T15:31:50.119Z,20.30
2023-01-11T15:34:25.934Z,18.10
2023-01-11T15:37:20.448Z,22.40
2023-01-11T15:39:53.442Z,21.70
2023-01-11T15:43:09.929Z,19.57
2023-01-11T15:46:41.559Z,21.67
2023-01-11T15:49:37.961Z,22.07
2023-01-11T15:55:34.355Z,25.37
2023-01-11T15:58:33.800Z,19.47
2023-01-11T16:01:25.275Z,24.53
2023-01-11T16:04:33.545Z,17.27
2023-01-11T16:07:10.253Z,13.13
2023-01-11T16:10:01.904Z,14.37
2023-01-11T16:12:42.637Z,14.63
2023-01-11T16:15:29.084Z,13.63
2023-01-11T16:18:04.853Z,15.17
2023-01-11T16:20:33.457Z,21.47
2023-01-11T16:23:04.968Z,14.77
2023-01-11T16:25:39.459Z,13.63
2023-01-11T16:28:14.006Z,18.87
2023-01-11T16:30:46.722Z,18.43
2023-01-11T16:33:16.316Z,19.77
2023-01-11T16:35:44.809Z,17.07
2023-01-11T16:38:17.250Z,17.70
2023-01-11T16:40:50.900Z,15.73
2023-01-11T16:43:23.478Z,16.60
2023-01-11T16:45:55.462Z,17.17
2023-01-11T16:48:25.030Z,10.53
2023-01-11T16:51:01.906Z,12.23
2023-01-11T16:53:31.925Z,17.13
2023-01-11T16:56:05.708Z,12.47
2023-01-11T16:58:36.158Z,17.87
2023-01-11T17:01:08.099Z,22.13
2023-01-11T17:03:38.589Z,12.40
2023-01-11T17:06:19.635Z,16.70
2023-01-11T17:08:52.364Z,14.47
2023-01-11T17:11:29.691Z,15.83
2023-01-11T17:14:51.903Z,9.67
2023-01-11T17:17:22.710Z,17.23
2023-01-11T17:19:53.350Z,17.17
2023-01-11T17:22:27.080Z,11.77
2023-01-11T17:24:59.656Z,17.27
2023-01-11T17:27:33.300Z,14.37
2023-01-11T17:30:03.870Z,17.03
2023-01-11T17:32:37.626Z,18.10
2023-01-11T17:35:08.516Z,14.90
2023-01-11T17:37:37.386Z,18.10
2023-01-11T17:40:08.900Z,14.20
2023-01-11T17:42:55.060Z,13.60
2023-01-11T17:45:26.186Z,16.57
2023-01-11T17:47:56.817Z,14.57
2023-01-11T17:50:30.942Z,18.23
2023-01-11T17:53:04.847Z,18.77
2023-01-11T17:55:34.949Z,13.17
2023-01-11T17:58:19.795Z,14.47
2023-01-11T18:01:11.705Z,18.83
2023-01-11T18:03:43.793Z,25.70
2023-01-11T18:06:21.820Z,19.07
2023-01-11T18:08:53.600Z,14.43
2023-01-11T18:11:25.624Z,17.03
2023-01-11T18:13:55.380Z,17.70
2023-01-11T18:16:25.152Z,18.23
2023-01-11T18:18:56.849Z,17.93
2023-01-11T18:21:51.698Z,18.37
2023-01-11T18:24:45.216Z,19.50
2023-01-11T18:27:31.628Z,21.43
2023-01-11T18:30:02.763Z,12.83
2023-01-11T18:32:36.654Z,15.13
2023-01-11T18:35:18.512Z,19.80
2023-01-11T18:37:47.648Z,15.17
2023-01-11T18:40:18.587Z,19.57
2023-01-11T18:42:49.933Z,19.80
2023-01-11T18:45:18.852Z,17.77
2023-01-11T18:47:47.430Z,17.90
2023-01-11T18:50:19.736Z,16.40
2023-01-11T18:52:48.579Z,11.13
2023-01-11T18:55:17.701Z,20.50
2023-01-11T18:57:47.562Z,23.33
2023-01-11T19:00:18.763Z,16.17
2023-01-11T19:02:47.417Z,18.10
2023-01-11T19:05:21.426Z,17.07
2023-01-11T19:07:50.330Z,16.53
2023-01-11T19:10:21.085Z,15.13
2023-01-11T19:12:49.801Z,20.27
2023-01-11T19:15:21.612Z,14.43
2023-01-11T19:17:50.340Z,19.07
2023-01-11T19:20:20.765Z,16.37
2023-01-11T19:22:49.311Z,13.93
2023-01-11T19:25:18.053Z,16.00
2023-01-11T19:27:46.637Z,15.53
2023-01-11T19:30:15.690Z,17.73
2023-01-11T19:32:44.325Z,20.27
2023-01-11T19:35:12.940Z,20.93
2023-01-11T19:37:42.990Z,17.93
2023-01-11T19:40:12.868Z,17.93
2023-01-11T19:42:41.488Z,18.43
2023-01-11T19:45:11.058Z,15.30
2023-01-11T19:47:40.129Z,17.53
2023-01-11T19:50:09.642Z,20.17
2023-01-11T19:52:38.211Z,17.37
2023-01-11T19:55:09.113Z,19.47
2023-01-11T19:57:37.708Z,15.87
2023-01-11T20:00:06.898Z,14.13
2023-01-11T20:02:40.669Z,11.03
2023-01-11T20:05:10.068Z,16.20
2023-01-11T20:07:38.582Z,20.23
2023-01-11T20:10:12.097Z,13.23
2023-01-11T20:12:40.712Z,14.00
2023-01-11T20:15:11.245Z,24.43
2023-01-11T20:17:39.814Z,14.50
2023-01-11T20:20:09.474Z,13.93
2023-01-11T20:22:38.197Z,16.57
2023-01-11T20:25:09.385Z,12.83
2023-01-11T20:27:38.736Z,13.33
2023-01-11T20:30:09.567Z,17.50
2023-01-11T20:32:41.741Z,17.23
2023-01-11T20:35:11.961Z,23.90
2023-01-11T20:37:40.462Z,21.00
2023-01-11T20:40:14.228Z,24.33
2023-01-11T20:42:43.053Z,17.07
2023-01-11T20:45:12.468Z,12.53
2023-01-11T20:47:41.126Z,20.30
2023-01-11T20:50:10.816Z,18.87
2023-01-11T20:52:39.552Z,19.73
2023-01-11T20:55:11.665Z,23.00
2023-01-11T20:57:40.113Z,17.47
2023-01-11T21:02:38.818Z,13.20
2023-01-11T21:05:08.206Z,20.10
2023-01-11T21:07:37.014Z,18.63
2023-01-11T21:10:06.323Z,15.03
2023-01-11T21:15:08.939Z,10.27
2023-01-11T21:17:37.751Z,13.77
2023-01-11T21:20:07.430Z,15.57
2023-01-11T21:22:36.123Z,16.03
2023-01-11T21:25:05.325Z,15.47
2023-01-11T21:27:35.293Z,19.23
2023-01-11T21:30:04.055Z,10.00
2023-01-11T21:32:32.731Z,18.53
2023-01-11T21:35:01.478Z,17.30
2023-01-11T21:37:30.586Z,12.27
2023-01-11T21:39:59.224Z,18.37
2023-01-11T21:42:28.922Z,16.30
2023-01-11T21:44:59.123Z,20.00
2023-01-11T21:47:27.912Z,16.13
2023-01-11T21:49:56.734Z,17.47
2023-01-11T21:52:25.372Z,15.87
2023-01-11T21:54:54.244Z,13.00
2023-01-11T21:57:24.499Z,15.40
2023-01-11T21:59:55.182Z,16.77
2023-01-11T22:02:30.747Z,13.30
2023-01-11T22:04:59.614Z,9.90
2023-01-11T22:07:31.243Z,15.10
2023-01-11T22:10:04.966Z,21.07
2023-01-11T22:12:35.171Z,11.50
2023-01-11T22:15:04.224Z,14.87
2023-01-11T22:17:34.388Z,19.83
2023-01-11T22:20:03.124Z,20.93
2023-01-11T22:22:32.127Z,17.27
2023-01-11T22:25:00.900Z,9.70
2023-01-11T22:27:29.819Z,14.90
2023-01-11T22:29:58.531Z,15.97
2023-01-11T22:32:27.501Z,16.70
2023-01-11T22:34:57.507Z,12.87
2023-01-11T22:37:26.056Z,16.57
2023-01-11T22:39:54.695Z,14.93
2023-01-11T22:42:23.180Z,21.67
2023-01-11T22:44:53.545Z,22.77
2023-01-11T22:47:22.251Z,19.03
2023-01-11T22:49:54.061Z,14.93
2023-01-11T22:52:24.252Z,20.73
2023-01-11T22:54:52.721Z,23.57
2023-01-11T22:57:21.403Z,10.10
2023-01-11T22:59:50.155Z,25.07
2023-01-11T23:02:18.598Z,21.37
2023-01-11T23:04:47.859Z,23.70
2023-01-11T23:07:16.422Z,20.63
2023-01-11T23:09:46.355Z,20.97
2023-01-11T23:12:32.584Z,23.33
2023-01-11T23:15:00.946Z,16.97
2023-01-11T23:17:29.463Z,18.37
2023-01-11T23:19:57.927Z,22.67
2023-01-11T23:22:26.372Z,17.67
2023-01-11T23:24:56.231Z,20.80
2023-01-11T23:27:24.600Z,23.43
2023-01-11T23:29:53.050Z,16.03
2023-01-11T23:32:21.539Z,26.73
2023-01-11T23:34:50.438Z,22.93
2023-01-11T23:37:18.782Z,21.00
2023-01-11T23:39:47.375Z,16.97
2023-01-11T23:42:28.177Z,23.43
2023-01-11T23:44:57.202Z,19.27
2023-01-11T23:47:26.112Z,24.10
2023-01-11T23:49:56.284Z,20.93
2023-01-11T23:52:26.733Z,16.67
2023-01-11T23:54:55.683Z,23.77
2023-01-11T23:57:26.794Z,15.67
2023-01-11T23:59:55.330Z,17.93
